createdAt,value
2019-05-29T00:00:02.133Z,12.3
2019-05-29T00:05:01.503Z,12.3
2019-05-29T00:10:02.770Z,12.3
2019-05-29T00:15:01.711Z,12.4
2019-05-29T00:20:02.780Z,12.2
2019-05-29T00:25:01.759Z,12.1
2019-05-29T00:30:13.456Z,12.1
2019-05-29T00:35:01.621Z,12.1
2019-05-29T00:40:02.460Z,12
2019-05-29T00:45:01.751Z,12
2019-05-29T00:50:02.786Z,11.9
2019-05-29T00:55:01.686Z,11.8
2019-05-29T01:00:03.172Z,11.8
2019-05-29T01:05:02.017Z,11.7
2019-05-29T01:10:01.395Z,11.7
2019-05-29T01:15:05.057Z,11.6
2019-05-29T01:20:01.724Z,11.5
2019-05-29T01:25:02.996Z,11.6
2019-05-29T01:30:02.071Z,11.6
2019-05-29T01:35:02.552Z,11.6
2019-05-29T01:40:18.998Z,11.5
2019-05-29T01:45:07.504Z,11.5
2019-05-29T01:50:01.819Z,11.5
2019-05-29T01:55:03.011Z,11.4
2019-05-29T02:00:01.964Z,11.5
2019-05-29T02:05:03.299Z,11.5
2019-05-29T02:10:02.022Z,11.5
2019-05-29T02:15:01.355Z,11.5
2019-05-29T02:20:06.896Z,11.4
2019-05-29T02:25:03.237Z,11.4
2019-05-29T02:30:02.053Z,11.3
2019-05-29T02:35:03.303Z,11.2
2019-05-29T02:40:02.160Z,11.1
2019-05-29T02:45:01.282Z,11
2019-05-29T02:50:02.509Z,11
2019-05-29T02:55:01.789Z,10.9
2019-05-29T03:00:03.222Z,10.8
2019-05-29T03:05:02.013Z,10.7
2019-05-29T03:10:03.270Z,10.7
2019-05-29T03:15:04.630Z,10.6
2019-05-29T03:20:05.941Z,10.6
2019-05-29T03:25:01.981Z,10.6
2019-05-29T03:30:20.838Z,10.5
2019-05-29T03:35:02.102Z,10.6
2019-05-29T03:40:02.158Z,10.5
2019-05-29T03:45:03.371Z,10.5
2019-05-29T03:50:02.350Z,10.5
2019-05-29T03:55:01.512Z,10.5
2019-05-29T04:00:02.796Z,10.5
2019-05-29T04:05:02.158Z,10.5
2019-05-29T04:10:03.256Z,10.5
2019-05-29T04:15:02.277Z,10.5
2019-05-29T04:20:01.455Z,10.5
2019-05-29T04:25:02.500Z,10.5
2019-05-29T04:30:01.688Z,10.5
2019-05-29T04:35:02.877Z,10.4
2019-05-29T04:40:01.924Z,10.4
2019-05-29T04:45:03.173Z,10.4
2019-05-29T04:50:01.969Z,10.5
2019-05-29T04:55:05.509Z,10.5
2019-05-29T05:00:14.735Z,10.5
2019-05-29T05:05:03.215Z,10.5
2019-05-29T05:10:02.093Z,10.5
2019-05-29T05:15:01.529Z,10.5
2019-05-29T05:20:07.103Z,10.5
2019-05-29T05:25:01.340Z,10.5
2019-05-29T05:30:02.284Z,10.5
2019-05-29T05:35:04.133Z,10.6
2019-05-29T05:40:02.494Z,10.6
2019-05-29T05:45:01.688Z,10.5
2019-05-29T05:50:02.747Z,10.5
2019-05-29T05:55:01.700Z,10.5
2019-05-29T06:00:03.065Z,10.5
2019-05-29T06:05:02.044Z,10.6
2019-05-29T06:10:03.293Z,10.7
2019-05-29T06:15:02.080Z,10.6
2019-05-29T06:20:03.278Z,10.6
2019-05-29T06:25:04.602Z,10.7
2019-05-29T06:30:03.607Z,10.7
2019-05-29T06:35:02.066Z,10.7
2019-05-29T06:40:02.896Z,10.8
2019-05-29T06:45:03.030Z,10.9
2019-05-29T06:50:03.503Z,10.9
2019-05-29T06:55:02.159Z,10.9
2019-05-29T07:00:01.371Z,11
2019-05-29T07:05:01.841Z,11
2019-05-29T07:10:03.428Z,11.1
2019-05-29T07:15:07.230Z,11.2
2019-05-29T07:20:04.163Z,11.2
2019-05-29T07:25:02.062Z,11.2
2019-05-29T07:30:01.334Z,11.3
2019-05-29T07:35:03.914Z,11.3
2019-05-29T07:40:01.543Z,11.4
2019-05-29T07:45:04.931Z,11.7
2019-05-29T07:50:01.544Z,11.7
2019-05-29T07:55:02.498Z,11.8
2019-05-29T08:00:01.959Z,11.9
2019-05-29T08:05:03.291Z,11.7
2019-05-29T08:10:02.077Z,11.8
2019-05-29T08:15:01.448Z,11.9
2019-05-29T08:20:06.725Z,12.1
2019-05-29T08:25:01.778Z,12.1
2019-05-29T08:30:03.310Z,12.1
2019-05-29T08:35:02.059Z,12.1
2019-05-29T08:40:01.367Z,12.1
2019-05-29T08:45:01.971Z,12.2
2019-05-29T08:50:17.079Z,12.3
2019-05-29T08:55:02.117Z,12.4
2019-05-29T09:00:01.353Z,12.6
2019-05-29T09:05:02.908Z,12.6
2019-05-29T09:10:01.812Z,12.6
2019-05-29T09:15:03.008Z,12.8
2019-05-29T09:20:01.876Z,12.8
2019-05-29T09:25:01.375Z,12.9
2019-05-29T09:30:16.659Z,13
2019-05-29T09:35:01.904Z,13
2019-05-29T09:40:03.278Z,13.2
2019-05-29T09:45:02.048Z,13.4
2019-05-29T09:50:03.370Z,13.5
2019-05-29T09:55:02.552Z,13.5
2019-05-29T10:00:02.092Z,13.5
2019-05-29T10:05:02.850Z,13.6
2019-05-29T10:10:03.461Z,13.7
2019-05-29T10:15:04.089Z,13.9
2019-05-29T10:20:03.260Z,14
2019-05-29T10:25:03.637Z,14
2019-05-29T10:30:01.787Z,14
2019-05-29T10:35:02.888Z,14
2019-05-29T10:40:01.891Z,13.9
2019-05-29T10:45:03.362Z,14.1
2019-05-29T10:50:02.270Z,14.2
2019-05-29T10:55:01.319Z,14.2
2019-05-29T11:00:02.508Z,14.4
2019-05-29T11:05:01.573Z,14.5
2019-05-29T11:10:02.482Z,14.4
2019-05-29T11:15:01.890Z,14.4
2019-05-29T11:20:03.170Z,14.4
2019-05-29T11:25:20.914Z,14.5
2019-05-29T11:30:01.522Z,14.7
2019-05-29T11:35:02.498Z,14.8
2019-05-29T11:40:03.219Z,14.9
2019-05-29T11:45:03.768Z,15
2019-05-29T11:50:16.118Z,15.1
2019-05-29T11:55:04.317Z,15.2
2019-05-29T12:00:13.902Z,15.1
2019-05-29T12:05:05.868Z,15.4
2019-05-29T12:10:04.103Z,15.4
2019-05-29T12:15:10.781Z,15.4
2019-05-29T12:20:03.973Z,15.7
2019-05-29T12:25:03.220Z,15.8
2019-05-29T12:30:03.245Z,16
2019-05-29T12:35:01.470Z,16
2019-05-29T12:40:03.774Z,16
2019-05-29T12:45:02.052Z,16.1
2019-05-29T12:50:03.022Z,16.3
2019-05-29T12:55:02.393Z,16.3
2019-05-29T13:00:04.272Z,16.6
2019-05-29T13:05:08.208Z,16.7
2019-05-29T13:10:05.566Z,17
2019-05-29T13:15:03.560Z,16.9
2019-05-29T13:20:18.849Z,17
2019-05-29T13:25:02.014Z,17.5
2019-05-29T13:30:04.824Z,18.1
2019-05-29T13:35:09.443Z,19.2
2019-05-29T13:40:05.398Z,19.2
2019-05-29T13:45:10.926Z,19.9
2019-05-29T13:50:06.217Z,20.5
2019-05-29T13:55:01.974Z,20.5
2019-05-29T14:00:04.625Z,19.3
2019-05-29T14:05:02.777Z,18.5
2019-05-29T14:10:03.235Z,17.9
2019-05-29T14:15:02.523Z,17.9
2019-05-29T14:20:02.643Z,17.7
2019-05-29T14:25:03.210Z,17.7
2019-05-29T14:30:03.457Z,18
2019-05-29T14:35:13.576Z,18.7
2019-05-29T14:40:03.518Z,18.7
2019-05-29T14:45:02.169Z,18.5
2019-05-29T14:50:02.712Z,18.5
2019-05-29T14:55:02.747Z,19
2019-05-29T15:00:06.628Z,19
2019-05-29T15:05:01.514Z,19.1
2019-05-29T15:10:08.456Z,19.4
2019-05-29T15:15:01.878Z,19.4
2019-05-29T15:20:03.021Z,19.6
2019-05-29T15:25:12.007Z,19.7
2019-05-29T15:30:03.153Z,19.8
2019-05-29T15:35:01.858Z,19.9
2019-05-29T15:40:01.405Z,19.7
2019-05-29T15:45:02.552Z,19.6
2019-05-29T15:50:11.098Z,19.2
2019-05-29T15:55:19.871Z,19.3
2019-05-29T16:00:02.059Z,19.2
2019-05-29T16:05:03.352Z,19.3
2019-05-29T16:10:08.183Z,19.9
2019-05-29T16:15:01.465Z,19.9
2019-05-29T16:20:02.147Z,19.9
2019-05-29T16:25:01.337Z,19.5
2019-05-29T16:30:02.251Z,19
2019-05-29T16:35:01.631Z,18.7
2019-05-29T16:40:02.666Z,18.4
2019-05-29T16:45:01.819Z,18.1
2019-05-29T16:50:07.973Z,18
2019-05-29T16:55:01.934Z,18
2019-05-29T17:00:03.144Z,18.1
2019-05-29T17:05:02.270Z,17.9
2019-05-29T17:10:01.696Z,17.5
2019-05-29T17:15:02.481Z,17.4
2019-05-29T17:20:01.681Z,17.4
2019-05-29T17:25:02.136Z,17.4
2019-05-29T17:30:03.267Z,17.5
2019-05-29T17:35:01.657Z,17.4
2019-05-29T17:40:02.577Z,17.4
2019-05-29T17:45:02.024Z,17.2
2019-05-29T17:50:02.359Z,17.1
2019-05-29T17:55:01.508Z,17
2019-05-29T18:00:02.251Z,17
2019-05-29T18:05:01.468Z,16.9
2019-05-29T18:10:02.738Z,16.8
2019-05-29T18:15:01.961Z,16.6
2019-05-29T18:20:03.254Z,16.5
2019-05-29T18:25:02.509Z,16.4
2019-05-29T18:30:01.807Z,16.3
2019-05-29T18:35:02.923Z,16.3
2019-05-29T18:40:01.887Z,16.2
2019-05-29T18:45:19.578Z,16.2
2019-05-29T18:50:01.553Z,16.1
2019-05-29T18:55:02.406Z,16.1
2019-05-29T19:00:01.666Z,16.1
2019-05-29T19:05:02.863Z,16.1
2019-05-29T19:10:01.959Z,16
2019-05-29T19:15:03.186Z,15.9
2019-05-29T19:20:02.005Z,15.8
2019-05-29T19:25:13.367Z,15.6
2019-05-29T19:30:04.797Z,15.6
2019-05-29T19:35:01.429Z,15.5
2019-05-29T19:40:02.595Z,15.4
2019-05-29T19:45:01.640Z,15.3
2019-05-29T19:50:02.690Z,15.1
2019-05-29T19:55:01.762Z,15
2019-05-29T20:00:03.136Z,14.8
2019-05-29T20:05:01.996Z,14.7
2019-05-29T20:10:03.457Z,14.5
2019-05-29T20:15:04.458Z,14.2
2019-05-29T20:20:01.432Z,14.2
2019-05-29T20:25:02.450Z,14.1
2019-05-29T20:30:01.869Z,13.9
2019-05-29T20:35:02.844Z,13.8
2019-05-29T20:40:02.001Z,13.7
2019-05-29T20:45:10.969Z,13.4
2019-05-29T20:50:01.808Z,13.4
2019-05-29T20:55:03.041Z,13.2
2019-05-29T21:00:02.071Z,13.1
2019-05-29T21:05:03.327Z,13
2019-05-29T21:10:02.143Z,12.7
2019-05-29T21:15:01.351Z,12.6
2019-05-29T21:20:02.289Z,12.5
2019-05-29T21:25:07.117Z,12.3
2019-05-29T21:30:02.647Z,12.2
2019-05-29T21:35:01.757Z,12.1
2019-05-29T21:40:05.830Z,11.8
2019-05-29T21:45:02.327Z,11.8
2019-05-29T21:50:01.616Z,11.7
2019-05-29T21:55:02.705Z,11.6
2019-05-29T22:00:01.660Z,11.5
2019-05-29T22:05:02.676Z,11.4
2019-05-29T22:10:03.042Z,11.3
2019-05-29T22:15:03.564Z,11.2
2019-05-29T22:20:02.003Z,11.1
2019-05-29T22:25:03.040Z,11
2019-05-29T22:30:01.863Z,11
2019-05-29T22:35:03.288Z,10.9
2019-05-29T22:40:02.229Z,10.8
2019-05-29T22:45:02.195Z,10.7
2019-05-29T22:50:02.304Z,10.6
2019-05-29T22:55:02.306Z,10.5
2019-05-29T23:00:04.798Z,10.3
2019-05-29T23:05:03.622Z,10.3
2019-05-29T23:10:02.650Z,10.2
2019-05-29T23:15:02.875Z,10.1
2019-05-29T23:20:04.109Z,10
2019-05-29T23:25:03.126Z,9.9
2019-05-29T23:30:03.408Z,9.8
2019-05-29T23:35:04.652Z,9.7
2019-05-29T23:40:08.420Z,9.5
2019-05-29T23:45:02.045Z,9.6
2019-05-29T23:50:04.460Z,9.5
2019-05-29T23:55:02.101Z,9.4
